createdAt,value
2017-10-13T00:00:30.989Z,0
2017-10-13T00:01:11.563Z,0
2017-10-13T00:01:52.131Z,0
2017-10-13T00:02:32.690Z,0
2017-10-13T00:03:13.260Z,0
2017-10-13T00:03:53.845Z,0
2017-10-13T00:04:34.407Z,0
2017-10-13T00:05:14.970Z,0
2017-10-13T00:05:55.544Z,0
2017-10-13T00:06:36.111Z,0
2017-10-13T00:07:16.674Z,0
2017-10-13T00:07:57.244Z,0
2017-10-13T00:08:37.807Z,0
2017-10-13T00:09:18.366Z,0
2017-10-13T00:09:58.944Z,0
2017-10-13T00:10:39.502Z,0
2017-10-13T00:11:20.064Z,0
2017-10-13T00:12:00.622Z,0
2017-10-13T00:12:41.188Z,0
2017-10-13T00:13:21.754Z,0
2017-10-13T00:14:02.327Z,0
2017-10-13T00:14:42.899Z,0
2017-10-13T00:15:23.466Z,0
2017-10-13T00:16:04.027Z,0
2017-10-13T00:16:51.317Z,0
2017-10-13T00:17:31.875Z,0
2017-10-13T00:18:12.443Z,0
2017-10-13T00:18:53.005Z,0
2017-10-13T00:19:33.601Z,0
2017-10-13T00:20:14.174Z,0
2017-10-13T00:20:54.744Z,0
2017-10-13T00:21:35.312Z,0
2017-10-13T00:22:15.880Z,0
2017-10-13T00:22:56.458Z,0
2017-10-13T00:23:37.026Z,0
2017-10-13T00:24:17.629Z,0
2017-10-13T00:24:58.199Z,0
2017-10-13T00:25:38.772Z,0
2017-10-13T00:26:19.333Z,0
2017-10-13T00:26:59.912Z,0
2017-10-13T00:27:40.512Z,0
2017-10-13T00:28:21.094Z,0
2017-10-13T00:29:01.654Z,0
2017-10-13T00:29:42.221Z,0
2017-10-13T00:30:22.811Z,0
2017-10-13T00:31:03.350Z,0
2017-10-13T00:31:43.915Z,0
2017-10-13T00:32:24.485Z,0
2017-10-13T00:33:05.120Z,0
2017-10-13T00:33:45.670Z,0
2017-10-13T00:34:26.230Z,0
2017-10-13T00:35:06.813Z,0
2017-10-13T00:35:47.381Z,0
2017-10-13T00:36:27.983Z,0
2017-10-13T00:37:08.556Z,0
2017-10-13T00:37:49.124Z,0
2017-10-13T00:38:29.685Z,0
2017-10-13T00:39:10.275Z,0
2017-10-13T00:39:50.831Z,0
2017-10-13T00:40:31.395Z,0
2017-10-13T00:41:11.954Z,0
2017-10-13T00:41:52.539Z,0
2017-10-13T00:42:33.094Z,0
2017-10-13T00:43:13.667Z,0
2017-10-13T00:43:54.225Z,0
2017-10-13T00:44:34.791Z,0
2017-10-13T00:45:15.374Z,0
2017-10-13T00:45:55.969Z,0
2017-10-13T00:46:36.521Z,0
2017-10-13T00:47:17.095Z,0
2017-10-13T00:47:57.673Z,0
2017-10-13T00:48:38.241Z,0
2017-10-13T00:49:18.799Z,0
2017-10-13T00:49:59.370Z,0
2017-10-13T00:50:39.928Z,0
2017-10-13T00:51:20.496Z,0
2017-10-13T00:52:01.102Z,0
2017-10-13T00:52:41.658Z,0
2017-10-13T00:53:22.299Z,0
2017-10-13T00:54:02.861Z,0
2017-10-13T00:54:43.422Z,0
2017-10-13T00:55:23.989Z,0
2017-10-13T00:56:04.572Z,0
2017-10-13T00:56:45.143Z,0
2017-10-13T00:57:25.706Z,0
2017-10-13T00:58:06.267Z,0
2017-10-13T00:58:46.843Z,0
2017-10-13T00:59:27.405Z,0
2017-10-13T01:00:07.972Z,0
2017-10-13T01:00:48.538Z,0
2017-10-13T01:01:29.111Z,0
2017-10-13T01:02:09.682Z,0
2017-10-13T01:02:50.240Z,0
2017-10-13T01:03:30.823Z,0
2017-10-13T01:04:11.399Z,0
2017-10-13T01:04:51.964Z,0
2017-10-13T01:05:32.530Z,0
2017-10-13T01:06:13.102Z,0
2017-10-13T01:06:53.668Z,0
2017-10-13T01:07:34.267Z,0
2017-10-13T01:08:14.836Z,0
2017-10-13T01:08:55.399Z,0
2017-10-13T01:09:35.963Z,0
2017-10-13T01:10:16.538Z,0
2017-10-13T01:10:57.105Z,0
2017-10-13T01:11:37.676Z,0
2017-10-13T01:12:18.247Z,0
2017-10-13T01:12:58.799Z,0
2017-10-13T01:13:39.369Z,0
2017-10-13T01:14:19.965Z,0
2017-10-13T01:15:00.532Z,0
2017-10-13T01:15:41.087Z,0
2017-10-13T01:16:21.656Z,0
2017-10-13T01:17:02.215Z,0
2017-10-13T01:17:42.824Z,0
2017-10-13T01:18:23.381Z,0
2017-10-13T01:19:03.937Z,0
2017-10-13T01:19:44.497Z,0
2017-10-13T01:20:25.072Z,0
2017-10-13T01:21:05.634Z,0
2017-10-13T01:21:46.192Z,0
2017-10-13T01:22:26.777Z,0
2017-10-13T01:23:07.339Z,0
2017-10-13T01:23:47.906Z,0
2017-10-13T01:24:28.513Z,0
2017-10-13T01:25:09.080Z,0
2017-10-13T01:25:49.668Z,0
2017-10-13T01:26:30.232Z,0
2017-10-13T01:27:10.791Z,0
2017-10-13T01:27:51.347Z,0
2017-10-13T01:28:31.911Z,0
2017-10-13T01:29:12.500Z,0
2017-10-13T01:29:53.045Z,0
2017-10-13T01:30:33.608Z,0
2017-10-13T01:31:14.190Z,0
2017-10-13T01:31:54.760Z,0
2017-10-13T01:32:35.341Z,0
2017-10-13T01:33:15.906Z,0
2017-10-13T01:33:56.466Z,0
2017-10-13T01:34:37.026Z,0
2017-10-13T01:35:17.603Z,0
2017-10-13T01:35:58.173Z,0
2017-10-13T01:36:38.752Z,0
2017-10-13T01:37:19.304Z,0
2017-10-13T01:37:59.878Z,0
2017-10-13T01:38:40.446Z,0
2017-10-13T01:39:21.010Z,0
2017-10-13T01:40:01.595Z,0
2017-10-13T01:40:42.166Z,0
2017-10-13T01:41:22.721Z,0
2017-10-13T01:42:03.295Z,0
2017-10-13T01:42:43.873Z,0
2017-10-13T01:43:24.447Z,0
2017-10-13T01:44:05.017Z,0
2017-10-13T01:44:45.595Z,0
2017-10-13T01:45:26.155Z,0
2017-10-13T01:46:06.728Z,0
2017-10-13T01:46:47.294Z,0
2017-10-13T01:47:27.855Z,0
2017-10-13T01:48:08.420Z,0
2017-10-13T01:48:48.978Z,0
2017-10-13T01:49:29.542Z,0
2017-10-13T01:50:10.110Z,0
2017-10-13T01:50:50.709Z,0
2017-10-13T01:51:31.269Z,0
2017-10-13T01:52:11.840Z,0
2017-10-13T01:52:52.416Z,0
2017-10-13T01:53:32.982Z,0
2017-10-13T01:54:13.545Z,0
2017-10-13T01:54:54.100Z,0
2017-10-13T01:55:34.660Z,0
2017-10-13T01:56:15.214Z,0
2017-10-13T01:56:55.806Z,0
2017-10-13T01:57:36.369Z,0
2017-10-13T01:58:16.932Z,0
2017-10-13T01:58:57.503Z,0
2017-10-13T01:59:38.064Z,0
2017-10-13T02:00:18.636Z,0
2017-10-13T02:00:59.200Z,0
2017-10-13T02:01:39.768Z,0
2017-10-13T02:02:20.330Z,0
2017-10-13T02:03:00.898Z,0
2017-10-13T02:03:41.459Z,0
2017-10-13T02:04:22.019Z,0
2017-10-13T02:05:02.586Z,0
2017-10-13T02:05:43.151Z,0
2017-10-13T02:06:23.717Z,0
2017-10-13T02:07:04.276Z,0
2017-10-13T02:07:44.830Z,0
2017-10-13T02:08:25.401Z,0
2017-10-13T02:09:06.016Z,0
2017-10-13T02:09:46.600Z,0
2017-10-13T02:10:27.155Z,0
2017-10-13T02:11:07.738Z,0
2017-10-13T02:11:48.318Z,0
2017-10-13T02:12:28.879Z,0
2017-10-13T02:13:09.447Z,0
2017-10-13T02:13:50.023Z,0
2017-10-13T02:14:30.589Z,0
2017-10-13T02:15:11.151Z,0
2017-10-13T02:15:51.708Z,0
2017-10-13T02:16:32.277Z,0
2017-10-13T02:17:12.856Z,0
2017-10-13T02:17:53.452Z,0
2017-10-13T02:18:34.027Z,0
2017-10-13T02:19:14.593Z,0
2017-10-13T02:19:55.157Z,0
2017-10-13T02:20:35.738Z,0
2017-10-13T02:21:16.319Z,0
2017-10-13T02:21:56.880Z,0
2017-10-13T02:22:37.470Z,0
2017-10-13T02:23:18.042Z,0
2017-10-13T02:23:58.620Z,0
2017-10-13T02:24:39.175Z,0
2017-10-13T02:25:19.747Z,0
2017-10-13T02:26:00.319Z,0
2017-10-13T02:26:40.891Z,0
2017-10-13T02:27:21.452Z,0
2017-10-13T02:28:02.017Z,0
2017-10-13T02:28:42.569Z,0
2017-10-13T02:29:23.166Z,0
2017-10-13T02:30:03.706Z,0
2017-10-13T02:30:44.672Z,0
2017-10-13T02:31:25.250Z,0
2017-10-13T02:32:05.817Z,0
2017-10-13T02:32:46.397Z,0
2017-10-13T02:33:26.962Z,0
2017-10-13T02:34:07.517Z,0
2017-10-13T02:34:48.082Z,0
2017-10-13T02:35:28.657Z,0
2017-10-13T02:36:09.221Z,0
2017-10-13T02:36:49.795Z,0
2017-10-13T02:37:30.379Z,0
2017-10-13T02:38:10.943Z,0
2017-10-13T02:38:51.511Z,0
2017-10-13T02:39:32.113Z,0
2017-10-13T02:40:12.679Z,0
2017-10-13T02:40:53.236Z,0
2017-10-13T02:41:33.800Z,0
2017-10-13T02:42:14.370Z,0
2017-10-13T02:42:54.946Z,0
2017-10-13T02:43:35.507Z,0
2017-10-13T02:44:16.073Z,0
2017-10-13T02:44:56.673Z,0
2017-10-13T02:45:37.248Z,0
2017-10-13T02:46:17.797Z,0
2017-10-13T02:46:58.363Z,0
2017-10-13T02:47:38.922Z,0
2017-10-13T02:48:19.490Z,0
2017-10-13T02:49:00.047Z,0
2017-10-13T02:49:40.636Z,0
2017-10-13T02:50:21.232Z,0
2017-10-13T02:51:01.790Z,0
2017-10-13T02:51:42.353Z,0
2017-10-13T02:52:22.949Z,0
2017-10-13T02:53:03.511Z,0
2017-10-13T02:53:44.065Z,0
2017-10-13T02:54:24.632Z,0
2017-10-13T02:55:05.189Z,0
2017-10-13T02:55:45.750Z,0
2017-10-13T02:56:26.324Z,0
2017-10-13T02:57:06.885Z,0
2017-10-13T02:57:47.448Z,0
2017-10-13T02:58:28.021Z,0
2017-10-13T02:59:08.582Z,0
2017-10-13T02:59:49.158Z,0
2017-10-13T03:00:29.727Z,0
2017-10-13T03:01:10.298Z,0
2017-10-13T03:01:50.859Z,0
2017-10-13T03:02:31.435Z,0
2017-10-13T03:03:12.001Z,0
2017-10-13T03:03:52.599Z,0
2017-10-13T03:04:33.165Z,0
2017-10-13T03:05:13.749Z,0
2017-10-13T03:05:54.322Z,0
2017-10-13T03:06:34.905Z,0
2017-10-13T03:07:15.473Z,0
2017-10-13T03:07:56.026Z,0
2017-10-13T03:08:36.626Z,0
2017-10-13T03:09:17.192Z,0
2017-10-13T03:09:57.767Z,0
2017-10-13T03:10:38.369Z,0
2017-10-13T03:11:18.951Z,0
2017-10-13T03:11:59.549Z,0
2017-10-13T03:12:40.178Z,0
2017-10-13T03:13:20.771Z,0
2017-10-13T03:14:01.350Z,0
2017-10-13T03:14:41.914Z,0
2017-10-13T03:15:22.492Z,0
2017-10-13T03:16:03.079Z,0
2017-10-13T03:16:43.652Z,0
2017-10-13T03:17:24.222Z,0
2017-10-13T03:18:04.824Z,0
2017-10-13T03:18:45.382Z,0
2017-10-13T03:19:25.951Z,0
2017-10-13T03:20:06.527Z,0
2017-10-13T03:20:47.087Z,0
2017-10-13T03:21:27.646Z,0
2017-10-13T03:22:08.211Z,0
2017-10-13T03:22:48.775Z,0
2017-10-13T03:23:29.355Z,0
2017-10-13T03:24:09.919Z,0
2017-10-13T03:24:50.496Z,0
2017-10-13T03:25:31.060Z,0
2017-10-13T03:26:11.628Z,0
2017-10-13T03:26:52.207Z,0
2017-10-13T03:27:32.774Z,0
2017-10-13T03:28:13.405Z,0
2017-10-13T03:28:53.996Z,0
2017-10-13T03:29:34.578Z,0
2017-10-13T03:30:15.138Z,0
2017-10-13T03:30:55.701Z,0
2017-10-13T03:31:36.269Z,0
2017-10-13T03:32:16.843Z,0
2017-10-13T03:32:57.397Z,0
2017-10-13T03:33:37.960Z,0
2017-10-13T03:34:18.538Z,0
2017-10-13T03:34:59.097Z,0
2017-10-13T03:35:39.660Z,0
2017-10-13T03:36:20.233Z,0
2017-10-13T03:37:00.799Z,0
2017-10-13T03:37:41.366Z,0
2017-10-13T03:38:21.957Z,0
2017-10-13T03:39:02.537Z,0
2017-10-13T03:39:43.100Z,0
2017-10-13T03:40:23.662Z,0
2017-10-13T03:41:04.289Z,0
2017-10-13T03:41:44.840Z,0
2017-10-13T03:42:25.409Z,0
2017-10-13T03:43:05.988Z,0
2017-10-13T03:43:46.565Z,0
2017-10-13T03:44:27.138Z,0
2017-10-13T03:45:07.996Z,0
2017-10-13T03:45:48.614Z,0
2017-10-13T03:46:29.218Z,0
2017-10-13T03:47:09.978Z,0
2017-10-13T03:47:50.543Z,0
2017-10-13T03:48:31.103Z,0
2017-10-13T03:49:11.674Z,0
2017-10-13T03:49:52.240Z,0
2017-10-13T03:50:32.852Z,0
2017-10-13T03:51:13.415Z,0
2017-10-13T03:51:53.968Z,0
2017-10-13T03:52:34.563Z,0
2017-10-13T03:53:15.178Z,0
2017-10-13T03:53:55.737Z,0
2017-10-13T03:54:36.399Z,0
2017-10-13T03:55:16.963Z,0
2017-10-13T03:55:57.533Z,0
2017-10-13T03:56:38.107Z,0
2017-10-13T03:57:18.671Z,0
2017-10-13T03:57:59.252Z,0
2017-10-13T03:58:39.838Z,0
2017-10-13T03:59:20.402Z,0
2017-10-13T04:00:00.995Z,0
2017-10-13T04:00:41.561Z,0
2017-10-13T04:01:22.139Z,0
2017-10-13T04:02:02.707Z,0
2017-10-13T04:02:43.283Z,0
2017-10-13T04:03:23.842Z,0
2017-10-13T04:04:04.444Z,0
2017-10-13T04:04:45.001Z,0
2017-10-13T04:05:25.586Z,0
2017-10-13T04:06:06.141Z,0
2017-10-13T04:06:46.714Z,0
2017-10-13T04:07:27.266Z,0
2017-10-13T04:08:07.837Z,0
2017-10-13T04:08:48.405Z,0
2017-10-13T04:09:29.612Z,0
2017-10-13T04:10:10.989Z,0
2017-10-13T04:10:51.556Z,0
2017-10-13T04:11:32.132Z,0
2017-10-13T04:12:12.696Z,0
2017-10-13T04:12:53.263Z,0
2017-10-13T04:13:33.829Z,0
2017-10-13T04:14:14.407Z,0
2017-10-13T04:14:54.990Z,0
2017-10-13T04:15:35.552Z,0
2017-10-13T04:16:16.160Z,0
2017-10-13T04:16:56.772Z,0
2017-10-13T04:17:37.331Z,0
2017-10-13T04:18:17.905Z,0
2017-10-13T04:18:58.473Z,0
2017-10-13T04:19:39.033Z,0
2017-10-13T04:20:19.608Z,0
2017-10-13T04:21:00.172Z,0
2017-10-13T04:21:40.746Z,0
2017-10-13T04:22:21.320Z,0
2017-10-13T04:23:01.918Z,0
2017-10-13T04:23:42.488Z,0
2017-10-13T04:24:23.136Z,0
2017-10-13T04:25:03.706Z,0
2017-10-13T04:25:44.279Z,0
2017-10-13T04:26:24.875Z,0
2017-10-13T04:27:05.474Z,0
2017-10-13T04:27:46.030Z,0
2017-10-13T04:28:26.922Z,0
2017-10-13T04:29:07.876Z,0
2017-10-13T04:29:48.593Z,0
2017-10-13T04:30:29.267Z,0
2017-10-13T04:31:09.826Z,0
2017-10-13T04:31:50.755Z,0
2017-10-13T04:32:31.567Z,0
2017-10-13T04:33:12.465Z,0
2017-10-13T04:33:53.644Z,0
2017-10-13T04:34:34.278Z,0
2017-10-13T04:35:14.871Z,0
2017-10-13T04:35:55.444Z,0
2017-10-13T04:36:36.044Z,0
2017-10-13T04:37:16.620Z,0
2017-10-13T04:37:57.191Z,0
2017-10-13T04:38:37.769Z,0
2017-10-13T04:39:18.334Z,0
2017-10-13T04:39:58.902Z,0
2017-10-13T04:40:39.481Z,0
2017-10-13T04:41:20.050Z,0
2017-10-13T04:42:00.611Z,0
2017-10-13T04:42:41.189Z,0
2017-10-13T04:43:21.768Z,0
2017-10-13T04:44:02.343Z,0
2017-10-13T04:44:42.926Z,0
2017-10-13T04:45:23.500Z,0
2017-10-13T04:46:04.055Z,0
2017-10-13T04:46:44.631Z,0
2017-10-13T04:47:25.188Z,0
2017-10-13T04:48:05.752Z,0
2017-10-13T04:48:46.324Z,0
2017-10-13T04:49:26.884Z,0
2017-10-13T04:50:07.451Z,0
2017-10-13T04:50:48.017Z,0
2017-10-13T04:51:28.582Z,0
2017-10-13T04:52:09.145Z,0
2017-10-13T04:52:49.720Z,0
2017-10-13T04:53:30.298Z,0
2017-10-13T04:54:10.844Z,0
2017-10-13T04:54:51.407Z,0
2017-10-13T04:55:31.993Z,4
2017-10-13T04:56:12.558Z,4
2017-10-13T04:56:53.125Z,4
2017-10-13T04:57:33.686Z,0
2017-10-13T04:58:14.254Z,0
2017-10-13T04:58:54.815Z,4
2017-10-13T04:59:35.390Z,4
2017-10-13T05:00:15.964Z,4
2017-10-13T05:00:56.518Z,4
2017-10-13T05:01:37.089Z,4
2017-10-13T05:02:17.650Z,8
2017-10-13T05:02:58.230Z,4
2017-10-13T05:03:38.802Z,8
2017-10-13T05:04:19.372Z,8
2017-10-13T05:04:59.924Z,8
2017-10-13T05:05:40.488Z,8
2017-10-13T05:06:21.081Z,8
2017-10-13T05:07:01.671Z,12
2017-10-13T05:07:42.243Z,12
2017-10-13T05:08:22.807Z,12
2017-10-13T05:09:03.401Z,16
2017-10-13T05:09:43.930Z,16
2017-10-13T05:10:24.498Z,20
2017-10-13T05:11:05.077Z,24
2017-10-13T05:11:45.633Z,28
2017-10-13T05:12:26.199Z,28
2017-10-13T05:13:06.810Z,32
2017-10-13T05:13:47.370Z,36
2017-10-13T05:14:27.961Z,40
2017-10-13T05:15:08.539Z,44
2017-10-13T05:15:49.097Z,48
2017-10-13T05:16:29.689Z,52
2017-10-13T05:17:10.268Z,60
2017-10-13T05:17:50.832Z,64
2017-10-13T05:18:31.393Z,72
2017-10-13T05:19:11.962Z,76
2017-10-13T05:19:52.574Z,88
2017-10-13T05:20:33.140Z,92
2017-10-13T05:21:13.699Z,100
2017-10-13T05:21:54.291Z,104
2017-10-13T05:22:34.858Z,112
2017-10-13T05:23:15.429Z,120
2017-10-13T05:23:55.990Z,128
2017-10-13T05:24:36.568Z,136
2017-10-13T05:25:17.133Z,144
2017-10-13T05:25:57.696Z,152
2017-10-13T05:26:38.309Z,164
2017-10-13T05:27:18.982Z,176
2017-10-13T05:27:59.525Z,184
2017-10-13T05:28:40.114Z,196
2017-10-13T05:29:20.683Z,208
2017-10-13T05:30:01.244Z,216
2017-10-13T05:30:41.800Z,228
2017-10-13T05:31:22.366Z,244
2017-10-13T05:32:02.935Z,260
2017-10-13T05:32:43.499Z,280
2017-10-13T05:33:24.050Z,296
2017-10-13T05:34:04.622Z,312
2017-10-13T05:34:45.214Z,332
2017-10-13T05:35:25.780Z,352
2017-10-13T05:36:06.350Z,372
2017-10-13T05:36:46.938Z,396
2017-10-13T05:37:27.522Z,420
2017-10-13T05:38:08.144Z,448
2017-10-13T05:38:48.706Z,476
2017-10-13T05:39:29.283Z,504
2017-10-13T05:40:09.846Z,536
2017-10-13T05:40:50.399Z,568
2017-10-13T05:41:30.968Z,596
2017-10-13T05:42:11.564Z,624
2017-10-13T05:42:52.148Z,652
2017-10-13T05:43:32.824Z,676
2017-10-13T05:44:13.390Z,700
2017-10-13T05:44:53.970Z,724
2017-10-13T05:45:34.603Z,744
2017-10-13T05:46:15.173Z,764
2017-10-13T05:46:55.738Z,784
2017-10-13T05:47:36.313Z,808
2017-10-13T05:48:16.927Z,832
2017-10-13T05:48:57.491Z,872
2017-10-13T05:49:38.099Z,920
2017-10-13T05:50:18.679Z,964
2017-10-13T05:50:59.256Z,1000
2017-10-13T05:51:39.850Z,1032
2017-10-13T05:52:20.423Z,1060
2017-10-13T05:53:00.978Z,1084
2017-10-13T05:53:41.583Z,1104
2017-10-13T05:54:22.167Z,1120
2017-10-13T05:55:02.744Z,1132
2017-10-13T05:55:43.311Z,1140
2017-10-13T05:56:23.882Z,1144
2017-10-13T05:57:04.446Z,1152
2017-10-13T05:57:45.014Z,1168
2017-10-13T05:58:25.559Z,1184
2017-10-13T05:59:06.145Z,1216
2017-10-13T05:59:46.727Z,1240
2017-10-13T06:00:27.297Z,1260
2017-10-13T06:01:07.860Z,1264
2017-10-13T06:01:48.459Z,1268
2017-10-13T06:02:29.023Z,1264
2017-10-13T06:03:09.596Z,1256
2017-10-13T06:03:50.205Z,1244
2017-10-13T06:04:30.767Z,1248
2017-10-13T06:05:11.349Z,1252
2017-10-13T06:05:51.919Z,1260
2017-10-13T06:06:32.494Z,1272
2017-10-13T06:07:13.056Z,1288
2017-10-13T06:07:53.613Z,1300
2017-10-13T06:08:34.175Z,1316
2017-10-13T06:09:14.761Z,1340
2017-10-13T06:09:55.320Z,1376
2017-10-13T06:10:35.879Z,1420
2017-10-13T06:11:16.445Z,1472
2017-10-13T06:11:57.009Z,1524
2017-10-13T06:12:37.576Z,1572
2017-10-13T06:13:18.149Z,1604
2017-10-13T06:13:58.739Z,1672
2017-10-13T06:14:39.331Z,1748
2017-10-13T06:15:19.902Z,1824
2017-10-13T06:16:00.463Z,1920
2017-10-13T06:16:41.038Z,1980
2017-10-13T06:17:21.597Z,2036
2017-10-13T06:18:02.184Z,2136
2017-10-13T06:18:42.749Z,2236
2017-10-13T06:19:23.325Z,2312
2017-10-13T06:20:03.894Z,2364
2017-10-13T06:20:44.446Z,2416
2017-10-13T06:21:25.007Z,2472
2017-10-13T06:22:05.624Z,2528
2017-10-13T06:22:46.217Z,2568
2017-10-13T06:23:26.793Z,2616
2017-10-13T06:24:07.477Z,2676
2017-10-13T06:24:48.054Z,2752
2017-10-13T06:25:28.630Z,2848
2017-10-13T06:26:09.185Z,2948
2017-10-13T06:26:49.765Z,3028
2017-10-13T06:27:30.341Z,3116
2017-10-13T06:28:10.914Z,3160
2017-10-13T06:28:51.494Z,3204
2017-10-13T06:29:32.059Z,3288
2017-10-13T06:30:12.635Z,3364
2017-10-13T06:30:53.212Z,3444
2017-10-13T06:31:33.783Z,3520
2017-10-13T06:32:14.351Z,3552
2017-10-13T06:32:54.921Z,3580
2017-10-13T06:33:35.491Z,3628
2017-10-13T06:34:16.080Z,3644
2017-10-13T06:34:56.646Z,3640
2017-10-13T06:35:37.279Z,3636
2017-10-13T06:36:17.931Z,3632
2017-10-13T06:36:58.534Z,3644
2017-10-13T06:37:39.151Z,3688
2017-10-13T06:38:19.730Z,3704
2017-10-13T06:39:00.289Z,3764
2017-10-13T06:39:40.856Z,3756
2017-10-13T06:40:21.432Z,3772
2017-10-13T06:41:01.997Z,3768
2017-10-13T06:41:42.558Z,3784
2017-10-13T06:42:23.124Z,3792
2017-10-13T06:43:03.705Z,3776
2017-10-13T06:43:44.268Z,3748
2017-10-13T06:44:24.832Z,3736
2017-10-13T06:45:05.408Z,3728
2017-10-13T06:45:45.968Z,3748
2017-10-13T06:46:26.543Z,3764
2017-10-13T06:47:07.107Z,3776
2017-10-13T06:47:47.696Z,3812
2017-10-13T06:48:28.262Z,3864
2017-10-13T06:49:08.840Z,3896
2017-10-13T06:49:49.413Z,3952
2017-10-13T06:50:29.975Z,3996
2017-10-13T06:51:10.536Z,4056
2017-10-13T06:51:51.110Z,4112
2017-10-13T06:52:31.680Z,4172
2017-10-13T06:53:12.252Z,4232
2017-10-13T06:53:52.813Z,4300
2017-10-13T06:54:33.441Z,4372
2017-10-13T06:55:13.997Z,4384
2017-10-13T06:55:54.570Z,4392
2017-10-13T06:56:35.135Z,4452
2017-10-13T06:57:15.719Z,4556
2017-10-13T06:57:56.280Z,4636
2017-10-13T06:58:36.856Z,4692
2017-10-13T06:59:17.413Z,4680
2017-10-13T06:59:57.989Z,4692
2017-10-13T07:00:38.553Z,4720
2017-10-13T07:01:19.133Z,4728
2017-10-13T07:01:59.706Z,4712
2017-10-13T07:02:40.264Z,4752
2017-10-13T07:03:20.839Z,4840
2017-10-13T07:04:01.393Z,4880
2017-10-13T07:04:41.971Z,4860
2017-10-13T07:05:22.541Z,4796
2017-10-13T07:06:03.131Z,4672
2017-10-13T07:06:43.696Z,4596
2017-10-13T07:07:24.272Z,4520
2017-10-13T07:08:04.834Z,4496
2017-10-13T07:08:45.402Z,4616
2017-10-13T07:09:25.961Z,4744
2017-10-13T07:10:06.529Z,4784
2017-10-13T07:10:47.091Z,4760
2017-10-13T07:11:27.652Z,4644
2017-10-13T07:12:08.209Z,4556
2017-10-13T07:12:48.785Z,4580
2017-10-13T07:13:29.355Z,4656
2017-10-13T07:14:09.923Z,4708
2017-10-13T07:14:50.489Z,4824
2017-10-13T07:15:31.047Z,4904
2017-10-13T07:16:11.621Z,4960
2017-10-13T07:16:52.215Z,5148
2017-10-13T07:17:32.779Z,5268
2017-10-13T07:18:13.357Z,5308
2017-10-13T07:18:53.929Z,5196
2017-10-13T07:19:34.504Z,5516
2017-10-13T07:20:15.068Z,5964
2017-10-13T07:20:55.630Z,6220
2017-10-13T07:21:36.213Z,6480
2017-10-13T07:22:16.773Z,6544
2017-10-13T07:22:57.340Z,6520
2017-10-13T07:23:37.922Z,6508
2017-10-13T07:24:18.491Z,6612
2017-10-13T07:24:59.060Z,6800
2017-10-13T07:25:39.618Z,6972
2017-10-13T07:26:20.190Z,7756
2017-10-13T07:27:00.760Z,13584
2017-10-13T07:27:41.328Z,32320
2017-10-13T07:28:21.895Z,44992
2017-10-13T07:29:02.463Z,55456
2017-10-13T07:29:43.030Z,48768
2017-10-13T07:30:23.606Z,48096
2017-10-13T07:31:04.176Z,53440
2017-10-13T07:31:44.751Z,58592
2017-10-13T07:32:25.308Z,56224
2017-10-13T07:33:05.872Z,56640
2017-10-13T07:33:46.430Z,57344
2017-10-13T07:34:27.016Z,50752
2017-10-13T07:35:07.586Z,56992
2017-10-13T07:35:48.182Z,61600
2017-10-13T07:36:28.751Z,63232
2017-10-13T07:37:09.312Z,62176
2017-10-13T07:37:49.882Z,65280
2017-10-13T07:38:30.450Z,66176
2017-10-13T07:39:11.022Z,66592
2017-10-13T07:39:51.600Z,66336
2017-10-13T07:40:32.160Z,68128
2017-10-13T07:41:12.722Z,73344
2017-10-13T07:41:53.294Z,75040
2017-10-13T07:42:33.871Z,45216
2017-10-13T07:43:14.507Z,61440
2017-10-13T07:43:55.088Z,31232
2017-10-13T07:44:35.656Z,23680
2017-10-13T07:45:16.230Z,15372
2017-10-13T07:45:56.799Z,27808
2017-10-13T07:46:37.366Z,67072
2017-10-13T07:47:17.938Z,10116
2017-10-13T07:47:58.514Z,8452
2017-10-13T07:48:39.084Z,7596
2017-10-13T07:49:19.657Z,9200
2017-10-13T07:50:00.221Z,21280
2017-10-13T07:50:40.800Z,53120
2017-10-13T07:51:21.367Z,23136
2017-10-13T07:52:01.982Z,26400
2017-10-13T07:52:42.567Z,42720
2017-10-13T07:53:23.158Z,66304
2017-10-13T07:54:03.737Z,60352
2017-10-13T07:54:44.324Z,55456
2017-10-13T07:55:24.890Z,43936
2017-10-13T07:56:05.458Z,42624
2017-10-13T07:56:46.070Z,45280
2017-10-13T07:57:26.642Z,48192
2017-10-13T07:58:07.222Z,59552
2017-10-13T07:58:47.800Z,38304
2017-10-13T07:59:28.382Z,39904
2017-10-13T08:00:08.960Z,60224
2017-10-13T08:00:49.529Z,56000
2017-10-13T08:01:30.105Z,53024
2017-10-13T08:02:10.675Z,34624
2017-10-13T08:02:51.243Z,28384
2017-10-13T08:03:31.826Z,39264
2017-10-13T08:04:12.392Z,31584
2017-10-13T08:04:52.961Z,37248
2017-10-13T08:05:33.554Z,35776
2017-10-13T08:06:14.121Z,12856
2017-10-13T08:06:54.712Z,23872
2017-10-13T08:07:35.297Z,41536
2017-10-13T08:08:15.884Z,46944
2017-10-13T08:08:58.009Z,31744
2017-10-13T08:09:38.595Z,17184
2017-10-13T08:10:19.259Z,17184
2017-10-13T08:10:59.870Z,10816
2017-10-13T08:11:40.446Z,25600
2017-10-13T08:12:21.018Z,25024
2017-10-13T08:13:01.601Z,21472
2017-10-13T08:13:42.148Z,17440
2017-10-13T08:14:22.809Z,12328
2017-10-13T08:15:03.384Z,12568
2017-10-13T08:15:43.957Z,22144
2017-10-13T08:16:24.539Z,18016
2017-10-13T08:17:05.109Z,21440
2017-10-13T08:17:45.682Z,8448
2017-10-13T08:18:26.256Z,7744
2017-10-13T08:19:06.841Z,21344
2017-10-13T08:19:47.415Z,17856
2017-10-13T08:20:27.988Z,24768
2017-10-13T08:21:08.575Z,19904
2017-10-13T08:21:49.150Z,22592
2017-10-13T08:22:29.723Z,26560
2017-10-13T08:23:10.293Z,25184
2017-10-13T08:23:50.877Z,21248
2017-10-13T08:24:31.450Z,23136
2017-10-13T08:25:12.014Z,24672
2017-10-13T08:25:52.594Z,24224
2017-10-13T08:26:33.157Z,18464
2017-10-13T08:27:13.723Z,13420
2017-10-13T08:27:54.287Z,17056
2017-10-13T08:28:35.009Z,14928
2017-10-13T08:29:15.577Z,10928
2017-10-13T08:29:56.152Z,13408
2017-10-13T08:30:36.753Z,15448
2017-10-13T08:31:17.323Z,14284
2017-10-13T08:31:57.899Z,14392
2017-10-13T08:32:38.468Z,13992
2017-10-13T08:33:19.033Z,14816
2017-10-13T08:33:59.619Z,13748
2017-10-13T08:34:40.202Z,13128
2017-10-13T08:35:20.807Z,12872
2017-10-13T08:36:01.380Z,11276
2017-10-13T08:36:41.948Z,12512
2017-10-13T08:37:22.521Z,12704
2017-10-13T08:38:03.101Z,11620
2017-10-13T08:38:43.672Z,10168
2017-10-13T08:39:24.252Z,10560
2017-10-13T08:40:04.858Z,9980
2017-10-13T08:40:45.418Z,9524
2017-10-13T08:41:25.991Z,9340
2017-10-13T08:42:06.619Z,9020
2017-10-13T08:42:47.196Z,8988
2017-10-13T08:43:27.787Z,8608
2017-10-13T08:44:08.360Z,8828
2017-10-13T08:44:48.962Z,8580
2017-10-13T08:45:29.554Z,8552
2017-10-13T08:46:10.141Z,7996
2017-10-13T08:46:50.698Z,8212
2017-10-13T08:47:31.260Z,8756
2017-10-13T08:48:11.827Z,9044
2017-10-13T08:48:52.421Z,9220
2017-10-13T08:49:33.006Z,8888
2017-10-13T08:50:13.598Z,9012
2017-10-13T08:50:54.181Z,9168
2017-10-13T08:51:34.770Z,9648
2017-10-13T08:52:15.332Z,8512
2017-10-13T08:52:55.889Z,8072
2017-10-13T08:53:36.486Z,8148
2017-10-13T08:54:17.051Z,7872
2017-10-13T08:54:57.625Z,6840
2017-10-13T08:55:38.185Z,6164
2017-10-13T08:56:18.774Z,7444
2017-10-13T08:56:59.344Z,5972
2017-10-13T08:57:39.922Z,5588
2017-10-13T08:58:20.498Z,5468
2017-10-13T08:59:01.093Z,6028
2017-10-13T08:59:41.660Z,7724
2017-10-13T09:00:22.240Z,6144
2017-10-13T09:01:02.865Z,5580
2017-10-13T09:01:43.465Z,5416
2017-10-13T09:02:24.038Z,5048
2017-10-13T09:03:04.606Z,5360
2017-10-13T09:03:45.175Z,5768
2017-10-13T09:04:25.750Z,5848
2017-10-13T09:05:06.332Z,5416
2017-10-13T09:05:46.918Z,5496
2017-10-13T09:06:27.518Z,6160
2017-10-13T09:07:08.149Z,6452
2017-10-13T09:07:48.712Z,6500
2017-10-13T09:08:29.283Z,5444
2017-10-13T09:09:09.856Z,5136
2017-10-13T09:09:50.443Z,5100
2017-10-13T09:10:31.022Z,5096
2017-10-13T09:11:11.615Z,5224
2017-10-13T09:11:52.193Z,5340
2017-10-13T09:12:32.751Z,5156
2017-10-13T09:13:13.321Z,4832
2017-10-13T09:13:53.895Z,4768
2017-10-13T09:14:34.462Z,5392
2017-10-13T09:15:15.043Z,6140
2017-10-13T09:15:55.631Z,5988
2017-10-13T09:16:36.222Z,5000
2017-10-13T09:17:16.808Z,4700
2017-10-13T09:17:57.395Z,4668
2017-10-13T09:18:37.998Z,4644
2017-10-13T09:19:18.589Z,4576
2017-10-13T09:19:59.170Z,4052
2017-10-13T09:20:39.740Z,3664
2017-10-13T09:21:20.327Z,3208
2017-10-13T09:22:00.947Z,3180
2017-10-13T09:22:41.519Z,3396
2017-10-13T09:23:22.100Z,4568
2017-10-13T09:24:02.681Z,5504
2017-10-13T09:24:43.252Z,6124
2017-10-13T09:25:23.868Z,5592
2017-10-13T09:26:04.477Z,5172
2017-10-13T09:26:45.050Z,5304
2017-10-13T09:27:25.620Z,4832
2017-10-13T09:28:06.206Z,4860
2017-10-13T09:28:46.791Z,5056
2017-10-13T09:29:27.352Z,5284
2017-10-13T09:30:07.925Z,5812
2017-10-13T09:30:48.493Z,6112